sensor_id;sensor_type;location;lat;lon;timestamp;pressure;altitude;pressure_sealevel;temperature;humidity
55994;BME280;67425;52.126;20.638;2023-10-13T00:02:05;57730.25;;;-144.78;64.18
55994;BME280;67425;52.126;20.638;2023-10-13T00:04:32;57765.56;;;-144.78;63.67
55994;BME280;67425;52.126;20.638;2023-10-13T00:07:01;57744.78;;;-144.78;65.13
55994;BME280;67425;52.126;20.638;2023-10-13T00:09:28;57767.63;;;-144.78;64.81
55994;BME280;67425;52.126;20.638;2023-10-13T00:12:03;57740.63;;;-144.78;65.40
55994;BME280;67425;52.126;20.638;2023-10-13T00:14:30;57748.94;;;-144.78;65.00
55994;BME280;67425;52.126;20.638;2023-10-13T00:17:06;57713.63;;;-144.78;65.84
55994;BME280;67425;52.126;20.638;2023-10-13T00:19:41;57769.72;;;-144.78;67.07
55994;BME280;67425;52.126;20.638;2023-10-13T00:22:11;57746.88;;;-144.78;67.46
55994;BME280;67425;52.126;20.638;2023-10-13T00:24:38;57738.56;;;-144.78;66.02
55994;BME280;67425;52.126;20.638;2023-10-13T00:27:20;57755.19;;;-144.78;65.60
55994;BME280;67425;52.126;20.638;2023-10-13T00:30:05;57771.78;;;-144.78;66.90
55994;BME280;67425;52.126;20.638;2023-10-13T00:32:57;57711.56;;;-144.78;65.57
55994;BME280;67425;52.126;20.638;2023-10-13T00:35:23;57732.34;;;-144.78;65.41
55994;BME280;67425;52.126;20.638;2023-10-13T00:37:57;57721.94;;;-144.78;65.12
55994;BME280;67425;52.126;20.638;2023-10-13T00:40:24;57730.25;;;-144.78;64.97
55994;BME280;67425;52.126;20.638;2023-10-13T00:42:59;57717.78;;;-144.78;64.12
55994;BME280;67425;52.126;20.638;2023-10-13T00:45:44;57742.72;;;-144.78;64.30
55994;BME280;67425;52.126;20.638;2023-10-13T00:48:14;57765.56;;;-144.78;64.53
55994;BME280;67425;52.126;20.638;2023-10-13T00:50:39;57726.09;;;-144.78;65.00
55994;BME280;67425;52.126;20.638;2023-10-13T00:53:06;57734.41;;;-144.78;64.47
55994;BME280;67425;52.126;20.638;2023-10-13T00:55:33;57769.72;;;-144.78;65.51
55994;BME280;67425;52.126;20.638;2023-10-13T00:58:02;57730.25;;;-144.78;65.06
55994;BME280;67425;52.126;20.638;2023-10-13T01:00:32;57755.19;;;-144.78;65.58
55994;BME280;67425;52.126;20.638;2023-10-13T01:02:57;57755.19;;;-144.78;65.18
55994;BME280;67425;52.126;20.638;2023-10-13T01:05:31;57717.78;;;-144.78;64.75
55994;BME280;67425;52.126;20.638;2023-10-13T01:08:00;57730.25;;;-144.78;64.59
55994;BME280;67425;52.126;20.638;2023-10-13T01:10:27;57744.78;;;-144.78;64.96
55994;BME280;67425;52.126;20.638;2023-10-13T01:12:54;57711.56;;;-144.78;65.57
55994;BME280;67425;52.126;20.638;2023-10-13T01:15:19;57761.41;;;-144.78;66.02
55994;BME280;67425;52.126;20.638;2023-10-13T01:17:48;57761.41;;;-144.78;67.18
55994;BME280;67425;52.126;20.638;2023-10-13T01:20:14;57736.50;;;-144.78;66.36
55994;BME280;67425;52.126;20.638;2023-10-13T01:22:46;57701.19;;;-144.78;65.90
55994;BME280;67425;52.126;20.638;2023-10-13T01:25:24;57728.19;;;-144.78;66.15
55994;BME280;67425;52.126;20.638;2023-10-13T01:27:53;57736.50;;;-144.78;66.26
55994;BME280;67425;52.126;20.638;2023-10-13T01:30:19;57736.50;;;-144.78;65.90
55994;BME280;67425;52.126;20.638;2023-10-13T01:32:52;57736.50;;;-144.78;67.01
55994;BME280;67425;52.126;20.638;2023-10-13T01:35:19;57728.19;;;-144.78;67.21
55994;BME280;67425;52.126;20.638;2023-10-13T01:37:50;57717.78;;;-144.78;67.02
55994;BME280;67425;52.126;20.638;2023-10-13T01:40:15;57719.88;;;-144.78;66.25
55994;BME280;67425;52.126;20.638;2023-10-13T01:42:45;57724.03;;;-144.78;66.67
55994;BME280;67425;52.126;20.638;2023-10-13T01:45:10;57713.63;;;-144.78;67.20
55994;BME280;67425;52.126;20.638;2023-10-13T01:47:39;57713.63;;;-144.78;66.62
55994;BME280;67425;52.126;20.638;2023-10-13T01:50:06;57694.94;;;-144.78;67.24
55994;BME280;67425;52.126;20.638;2023-10-13T01:52:44;57713.63;;;-144.78;67.55
55994;BME280;67425;52.126;20.638;2023-10-13T01:55:09;57728.19;;;-144.78;68.57
55994;BME280;67425;52.126;20.638;2023-10-13T01:57:36;57742.72;;;-144.78;68.71
55994;BME280;67425;52.126;20.638;2023-10-13T02:00:02;57724.03;;;-144.78;67.67
55994;BME280;67425;52.126;20.638;2023-10-13T02:02:36;57701.19;;;-144.78;67.97
55994;BME280;67425;52.126;20.638;2023-10-13T02:05:03;57721.94;;;-144.78;67.85
55994;BME280;67425;52.126;20.638;2023-10-13T02:07:29;57697.03;;;-144.78;67.64
55994;BME280;67425;52.126;20.638;2023-10-13T02:10:00;57701.19;;;-144.78;67.71
55994;BME280;67425;52.126;20.638;2023-10-13T02:12:29;57713.63;;;-144.78;67.50
55994;BME280;67425;52.126;20.638;2023-10-13T02:15:02;57715.72;;;-144.78;68.58
55994;BME280;67425;52.126;20.638;2023-10-13T02:17:30;57697.03;;;-144.78;67.61
55994;BME280;67425;52.126;20.638;2023-10-13T02:20:06;57742.72;;;-144.78;67.69
55994;BME280;67425;52.126;20.638;2023-10-13T02:22:33;57709.50;;;-144.78;68.03
55994;BME280;67425;52.126;20.638;2023-10-13T02:24:58;57717.78;;;-144.78;68.39
55994;BME280;67425;52.126;20.638;2023-10-13T02:27:27;57686.63;;;-144.78;67.87
55994;BME280;67425;52.126;20.638;2023-10-13T02:29:52;57690.78;;;-144.78;67.54
55994;BME280;67425;52.126;20.638;2023-10-13T02:32:24;57703.25;;;-144.78;67.43
55994;BME280;67425;52.126;20.638;2023-10-13T02:34:49;57663.78;;;-144.78;67.48
55994;BME280;67425;52.126;20.638;2023-10-13T02:37:14;57721.94;;;-144.78;66.76
55994;BME280;67425;52.126;20.638;2023-10-13T02:39:41;57697.03;;;-144.78;67.06
55994;BME280;67425;52.126;20.638;2023-10-13T02:42:07;57697.03;;;-144.78;67.33
55994;BME280;67425;52.126;20.638;2023-10-13T02:44:36;57713.63;;;-144.78;67.56
55994;BME280;67425;52.126;20.638;2023-10-13T02:47:04;57694.94;;;-144.78;68.03
55994;BME280;67425;52.126;20.638;2023-10-13T02:49:38;57711.56;;;-144.78;67.04
55994;BME280;67425;52.126;20.638;2023-10-13T02:52:08;57688.72;;;-144.78;66.54
55994;BME280;67425;52.126;20.638;2023-10-13T02:54:34;57672.09;;;-144.78;66.92
55994;BME280;67425;52.126;20.638;2023-10-13T02:57:05;57684.56;;;-144.78;67.68
55994;BME280;67425;52.126;20.638;2023-10-13T02:59:31;57692.88;;;-144.78;67.87
55994;BME280;67425;52.126;20.638;2023-10-13T03:02:05;57684.56;;;-144.78;68.20
55994;BME280;67425;52.126;20.638;2023-10-13T03:04:46;57694.94;;;-144.78;67.33
55994;BME280;67425;52.126;20.638;2023-10-13T03:07:11;57690.78;;;-144.78;67.32
55994;BME280;67425;52.126;20.638;2023-10-13T03:09:41;57692.88;;;-144.78;66.85
55994;BME280;67425;52.126;20.638;2023-10-13T03:12:14;57672.09;;;-144.78;67.56
55994;BME280;67425;52.126;20.638;2023-10-13T03:14:40;57709.50;;;-144.78;68.27
55994;BME280;67425;52.126;20.638;2023-10-13T03:17:05;57726.09;;;-144.78;70.07
55994;BME280;67425;52.126;20.638;2023-10-13T03:19:31;57711.56;;;-144.78;69.07
55994;BME280;67425;52.126;20.638;2023-10-13T03:22:03;57697.03;;;-144.78;67.43
55994;BME280;67425;52.126;20.638;2023-10-13T03:24:38;57680.41;;;-144.78;67.84
55994;BME280;67425;52.126;20.638;2023-10-13T03:27:10;57713.63;;;-144.78;67.83
55994;BME280;67425;52.126;20.638;2023-10-13T03:29:39;57705.34;;;-144.78;68.61
55994;BME280;67425;52.126;20.638;2023-10-13T03:32:19;57676.25;;;-144.78;68.02
55994;BME280;67425;52.126;20.638;2023-10-13T03:34:46;57705.34;;;-144.78;67.56
55994;BME280;67425;52.126;20.638;2023-10-13T03:37:24;57682.50;;;-144.78;66.81
55994;BME280;67425;52.126;20.638;2023-10-13T03:40:12;57699.09;;;-144.78;66.00
55994;BME280;67425;52.126;20.638;2023-10-13T03:42:50;57676.25;;;-144.78;66.22
55994;BME280;67425;52.126;20.638;2023-10-13T03:45:35;57728.19;;;-144.78;68.45
55994;BME280;67425;52.126;20.638;2023-10-13T03:48:16;57697.03;;;-144.78;69.43
55994;BME280;67425;52.126;20.638;2023-10-13T03:53:27;57701.19;;;-144.78;66.41
55994;BME280;67425;52.126;20.638;2023-10-13T03:55:59;57692.88;;;-144.78;67.61
55994;BME280;67425;52.126;20.638;2023-10-13T03:58:37;57709.50;;;-144.78;66.93
55994;BME280;67425;52.126;20.638;2023-10-13T04:01:11;57699.09;;;-144.78;65.75
55994;BME280;67425;52.126;20.638;2023-10-13T04:03:39;57713.63;;;-144.78;66.08
55994;BME280;67425;52.126;20.638;2023-10-13T04:06:21;57694.94;;;-144.78;65.19
55994;BME280;67425;52.126;20.638;2023-10-13T04:09:07;57694.94;;;-144.78;65.03
55994;BME280;67425;52.126;20.638;2023-10-13T04:11:50;57728.19;;;-144.78;66.05
55994;BME280;67425;52.126;20.638;2023-10-13T04:14:24;57715.72;;;-144.78;65.83
55994;BME280;67425;52.126;20.638;2023-10-13T04:17:10;57721.94;;;-144.78;65.68
55994;BME280;67425;52.126;20.638;2023-10-13T04:19:48;57707.41;;;-144.78;65.10
55994;BME280;67425;52.126;20.638;2023-10-13T04:25:13;57711.56;;;-144.78;65.44
55994;BME280;67425;52.126;20.638;2023-10-13T04:27:56;57711.56;;;-144.78;65.36
55994;BME280;67425;52.126;20.638;2023-10-13T04:30:50;57724.03;;;-144.78;66.17
55994;BME280;67425;52.126;20.638;2023-10-13T04:33:23;57742.72;;;-144.78;66.19
55994;BME280;67425;52.126;20.638;2023-10-13T04:38:40;57742.72;;;-144.78;67.28
55994;BME280;67425;52.126;20.638;2023-10-13T04:41:20;57705.34;;;-144.78;66.45
55994;BME280;67425;52.126;20.638;2023-10-13T04:43:48;57690.78;;;-144.78;66.91
55994;BME280;67425;52.126;20.638;2023-10-13T04:46:37;57707.41;;;-144.78;66.47
55994;BME280;67425;52.126;20.638;2023-10-13T04:49:22;57721.94;;;-144.78;68.06
55994;BME280;67425;52.126;20.638;2023-10-13T04:51:56;57713.63;;;-144.78;67.52
55994;BME280;67425;52.126;20.638;2023-10-13T04:54:27;57703.25;;;-144.78;66.98
55994;BME280;67425;52.126;20.638;2023-10-13T04:59:44;57736.50;;;-144.78;69.44
55994;BME280;67425;52.126;20.638;2023-10-13T05:02:43;57717.78;;;-144.78;70.86
55994;BME280;67425;52.126;20.638;2023-10-13T05:05:22;57713.63;;;-144.78;70.26
55994;BME280;67425;52.126;20.638;2023-10-13T05:07:50;57705.34;;;-144.78;69.21
55994;BME280;67425;52.126;20.638;2023-10-13T05:10:34;57709.50;;;-144.78;67.66
55994;BME280;67425;52.126;20.638;2023-10-13T05:13:19;57713.63;;;-144.78;67.13
55994;BME280;67425;52.126;20.638;2023-10-13T05:16:02;57692.88;;;-144.78;67.70
55994;BME280;67425;52.126;20.638;2023-10-13T05:18:46;57719.88;;;-144.78;67.56
55994;BME280;67425;52.126;20.638;2023-10-13T05:21:30;57686.63;;;-144.78;67.56
55994;BME280;67425;52.126;20.638;2023-10-13T05:24:14;57682.50;;;-144.78;67.55
55994;BME280;67425;52.126;20.638;2023-10-13T05:26:58;57688.72;;;-144.78;67.31
55994;BME280;67425;52.126;20.638;2023-10-13T05:29:44;57682.50;;;-144.78;67.27
55994;BME280;67425;52.126;20.638;2023-10-13T05:32:28;57701.19;;;-144.78;66.56
55994;BME280;67425;52.126;20.638;2023-10-13T05:35:13;57676.25;;;-144.78;66.27
55994;BME280;67425;52.126;20.638;2023-10-13T05:37:58;57667.94;;;-144.78;66.73
55994;BME280;67425;52.126;20.638;2023-10-13T05:41:11;57705.34;;;-144.78;66.81
55994;BME280;67425;52.126;20.638;2023-10-13T05:43:55;57711.56;;;-144.78;68.43
55994;BME280;67425;52.126;20.638;2023-10-13T05:46:39;57697.03;;;-144.78;68.34
55994;BME280;67425;52.126;20.638;2023-10-13T05:49:06;57665.88;;;-144.78;68.31
55994;BME280;67425;52.126;20.638;2023-10-13T05:51:54;57705.34;;;-144.78;68.14
55994;BME280;67425;52.126;20.638;2023-10-13T05:54:44;57682.50;;;-144.78;68.56
55994;BME280;67425;52.126;20.638;2023-10-13T05:57:27;57697.03;;;-144.78;68.40
55994;BME280;67425;52.126;20.638;2023-10-13T06:00:12;57680.41;;;-144.78;68.71
55994;BME280;67425;52.126;20.638;2023-10-13T06:03:07;57680.41;;;-144.78;67.72
55994;BME280;67425;52.126;20.638;2023-10-13T06:05:51;57645.09;;;-144.78;66.87
55994;BME280;67425;52.126;20.638;2023-10-13T06:08:34;57688.72;;;-144.78;67.23
55994;BME280;67425;52.126;20.638;2023-10-13T06:11:18;57676.25;;;-144.78;66.87
55994;BME280;67425;52.126;20.638;2023-10-13T06:14:02;57674.19;;;-144.78;66.84
55994;BME280;67425;52.126;20.638;2023-10-13T06:16:46;57674.19;;;-144.78;67.03
55994;BME280;67425;52.126;20.638;2023-10-13T06:19:30;57655.50;;;-144.78;67.33
55994;BME280;67425;52.126;20.638;2023-10-13T06:22:14;57653.41;;;-144.78;67.97
55994;BME280;67425;52.126;20.638;2023-10-13T06:24:58;57682.50;;;-144.78;68.11
55994;BME280;67425;52.126;20.638;2023-10-13T06:27:42;57694.94;;;-144.78;67.66
55994;BME280;67425;52.126;20.638;2023-10-13T06:30:26;57663.78;;;-144.78;67.97
55994;BME280;67425;52.126;20.638;2023-10-13T06:32:51;57655.50;;;-144.78;68.25
55994;BME280;67425;52.126;20.638;2023-10-13T06:35:18;57653.41;;;-144.78;67.73
55994;BME280;67425;52.126;20.638;2023-10-13T06:37:44;57649.25;;;-144.78;67.61
55994;BME280;67425;52.126;20.638;2023-10-13T06:40:12;57665.88;;;-144.78;67.74
55994;BME280;67425;52.126;20.638;2023-10-13T06:42:46;57672.09;;;-144.78;67.58
55994;BME280;67425;52.126;20.638;2023-10-13T06:45:12;57684.56;;;-144.78;67.29
55994;BME280;67425;52.126;20.638;2023-10-13T06:47:38;57640.94;;;-144.78;67.22
55994;BME280;67425;52.126;20.638;2023-10-13T06:50:08;57676.25;;;-144.78;66.19
55994;BME280;67425;52.126;20.638;2023-10-13T06:52:50;57672.09;;;-144.78;66.78
55994;BME280;67425;52.126;20.638;2023-10-13T06:55:16;57672.09;;;-144.78;67.20
55994;BME280;67425;52.126;20.638;2023-10-13T06:57:52;57678.34;;;-144.78;66.45
55994;BME280;67425;52.126;20.638;2023-10-13T07:00:17;57663.78;;;-144.78;67.34
55994;BME280;67425;52.126;20.638;2023-10-13T07:02:59;57670.03;;;-144.78;68.82
55994;BME280;67425;52.126;20.638;2023-10-13T07:05:51;57663.78;;;-144.78;68.75
55994;BME280;67425;52.126;20.638;2023-10-13T07:08:17;57670.03;;;-144.78;68.28
55994;BME280;67425;52.126;20.638;2023-10-13T07:10:55;57670.03;;;-144.78;69.38
55994;BME280;67425;52.126;20.638;2023-10-13T07:13:43;57643.03;;;-144.78;68.07
55994;BME280;67425;52.126;20.638;2023-10-13T07:16:15;57655.50;;;-144.78;68.74
55994;BME280;67425;52.126;20.638;2023-10-13T07:18:41;57657.56;;;-144.78;68.31
55994;BME280;67425;52.126;20.638;2023-10-13T07:21:18;57651.34;;;-144.78;68.67
55994;BME280;67425;52.126;20.638;2023-10-13T07:23:58;57670.03;;;-144.78;68.73
55994;BME280;67425;52.126;20.638;2023-10-13T07:26:34;57651.34;;;-144.78;68.82
55994;BME280;67425;52.126;20.638;2023-10-13T07:28:59;57645.09;;;-144.78;68.96
55994;BME280;67425;52.126;20.638;2023-10-13T07:31:25;57647.19;;;-144.78;68.37
55994;BME280;67425;52.126;20.638;2023-10-13T07:33:52;57653.41;;;-144.78;68.47
55994;BME280;67425;52.126;20.638;2023-10-13T07:36:30;57678.34;;;-144.78;68.13
55994;BME280;67425;52.126;20.638;2023-10-13T07:39:04;57638.88;;;-144.78;67.71
55994;BME280;67425;52.126;20.638;2023-10-13T07:41:51;57672.09;;;-144.78;67.52
55994;BME280;67425;52.126;20.638;2023-10-13T07:44:19;57659.63;;;-144.78;68.67
55994;BME280;67425;52.126;20.638;2023-10-13T07:46:50;57638.88;;;-144.78;69.89
55994;BME280;67425;52.126;20.638;2023-10-13T07:49:23;57647.19;;;-144.78;69.42
55994;BME280;67425;52.126;20.638;2023-10-13T07:51:57;57659.63;;;-144.78;68.65
55994;BME280;67425;52.126;20.638;2023-10-13T07:54:25;57657.56;;;-144.78;69.22
55994;BME280;67425;52.126;20.638;2023-10-13T07:56:51;57663.78;;;-144.78;69.02
55994;BME280;67425;52.126;20.638;2023-10-13T07:59:20;57661.72;;;-144.78;69.18
55994;BME280;67425;52.126;20.638;2023-10-13T08:01:48;57651.34;;;-144.78;68.14
55994;BME280;67425;52.126;20.638;2023-10-13T08:04:21;57653.41;;;-144.78;67.60
55994;BME280;67425;52.126;20.638;2023-10-13T08:06:53;57663.78;;;-144.78;68.32
55994;BME280;67425;52.126;20.638;2023-10-13T08:09:27;57628.50;;;-144.78;68.51
55994;BME280;67425;52.126;20.638;2023-10-13T08:11:57;57647.19;;;-144.78;68.96
55994;BME280;67425;52.126;20.638;2023-10-13T08:14:22;57638.88;;;-144.78;68.35
55994;BME280;67425;52.126;20.638;2023-10-13T08:16:48;57659.63;;;-144.78;69.03
55994;BME280;67425;52.126;20.638;2023-10-13T08:19:18;57622.25;;;-144.78;69.07
55994;BME280;67425;52.126;20.638;2023-10-13T08:21:45;57643.03;;;-144.78;67.58
55994;BME280;67425;52.126;20.638;2023-10-13T08:24:46;57643.03;;;-144.78;67.96
55994;BME280;67425;52.126;20.638;2023-10-13T08:27:13;57663.78;;;-144.78;68.87
55994;BME280;67425;52.126;20.638;2023-10-13T08:29:57;57638.88;;;-144.78;68.96
55994;BME280;67425;52.126;20.638;2023-10-13T08:32:32;57651.34;;;-144.78;68.20
55994;BME280;67425;52.126;20.638;2023-10-13T08:34:59;57643.03;;;-144.78;67.66
55994;BME280;67425;52.126;20.638;2023-10-13T08:37:29;57640.94;;;-144.78;68.73
55994;BME280;67425;52.126;20.638;2023-10-13T08:39:59;57638.88;;;-144.78;68.65
55994;BME280;67425;52.126;20.638;2023-10-13T08:42:45;57634.72;;;-144.78;68.08
55994;BME280;67425;52.126;20.638;2023-10-13T08:45:12;57638.88;;;-144.78;67.73
55994;BME280;67425;52.126;20.638;2023-10-13T08:47:54;57628.50;;;-144.78;67.77
55994;BME280;67425;52.126;20.638;2023-10-13T08:50:37;57624.34;;;-144.78;65.92
55994;BME280;67425;52.126;20.638;2023-10-13T08:53:25;57626.41;;;-144.78;65.40
55994;BME280;67425;52.126;20.638;2023-10-13T08:55:59;57636.78;;;-144.78;65.57
55994;BME280;67425;52.126;20.638;2023-10-13T08:58:48;57628.50;;;-144.78;64.95
55994;BME280;67425;52.126;20.638;2023-10-13T09:01:29;57620.19;;;-144.78;65.23
55994;BME280;67425;52.126;20.638;2023-10-13T09:04:09;57643.03;;;-144.78;64.12
55994;BME280;67425;52.126;20.638;2023-10-13T09:09:28;57611.88;;;-144.78;63.79
55994;BME280;67425;52.126;20.638;2023-10-13T09:12:14;57628.50;;;-144.78;64.18
55994;BME280;67425;52.126;20.638;2023-10-13T09:14:43;57620.19;;;-144.78;63.88
55994;BME280;67425;52.126;20.638;2023-10-13T09:17:22;57628.50;;;-144.78;64.49
55994;BME280;67425;52.126;20.638;2023-10-13T09:22:47;57618.09;;;-144.78;63.72
55994;BME280;67425;52.126;20.638;2023-10-13T09:25:38;57626.41;;;-144.78;63.39
55994;BME280;67425;52.126;20.638;2023-10-13T09:28:27;57624.34;;;-144.78;63.39
55994;BME280;67425;52.126;20.638;2023-10-13T09:30:54;57605.66;;;-144.78;63.54
55994;BME280;67425;52.126;20.638;2023-10-13T09:33:25;57601.50;;;-144.78;63.40
55994;BME280;67425;52.126;20.638;2023-10-13T09:36:15;57599.41;;;-144.78;63.45
55994;BME280;67425;52.126;20.638;2023-10-13T09:38:45;57578.66;;;-144.78;62.88
55994;BME280;67425;52.126;20.638;2023-10-13T09:41:31;57618.09;;;-144.78;62.78
55994;BME280;67425;52.126;20.638;2023-10-13T09:43:57;57603.56;;;-144.78;62.83
55994;BME280;67425;52.126;20.638;2023-10-13T09:46:26;57582.81;;;-144.78;63.75
55994;BME280;67425;52.126;20.638;2023-10-13T09:48:57;57613.94;;;-144.78;63.68
55994;BME280;67425;52.126;20.638;2023-10-13T09:51:40;57601.50;;;-144.78;63.52
55994;BME280;67425;52.126;20.638;2023-10-13T09:54:35;57584.88;;;-144.78;62.69
55994;BME280;67425;52.126;20.638;2023-10-13T09:57:14;57589.03;;;-144.78;62.12
55994;BME280;67425;52.126;20.638;2023-10-13T09:59:49;57584.88;;;-144.78;61.71
55994;BME280;67425;52.126;20.638;2023-10-13T10:02:18;57576.56;;;-144.78;61.61
55994;BME280;67425;52.126;20.638;2023-10-13T10:04:56;57601.50;;;-144.78;62.05
55994;BME280;67425;52.126;20.638;2023-10-13T10:07:37;57578.66;;;-144.78;62.63
55994;BME280;67425;52.126;20.638;2023-10-13T10:10:05;57584.88;;;-144.78;62.73
55994;BME280;67425;52.126;20.638;2023-10-13T10:12:56;57574.50;;;-144.78;63.25
55994;BME280;67425;52.126;20.638;2023-10-13T10:15:35;57593.19;;;-144.78;62.47
55994;BME280;67425;52.126;20.638;2023-10-13T10:18:20;57564.09;;;-144.78;62.58
55994;BME280;67425;52.126;20.638;2023-10-13T10:20:48;57572.41;;;-144.78;62.06
55994;BME280;67425;52.126;20.638;2023-10-13T10:23:28;57564.09;;;-144.78;61.77
55994;BME280;67425;52.126;20.638;2023-10-13T10:26:14;57568.25;;;-144.78;61.09
55994;BME280;67425;52.126;20.638;2023-10-13T10:28:42;57591.09;;;-144.78;62.04
55994;BME280;67425;52.126;20.638;2023-10-13T10:31:09;57566.19;;;-144.78;60.95
55994;BME280;67425;52.126;20.638;2023-10-13T10:33:38;57543.34;;;-144.78;61.09
55994;BME280;67425;52.126;20.638;2023-10-13T10:36:04;57545.41;;;-144.78;61.42
55994;BME280;67425;52.126;20.638;2023-10-13T10:38:30;57555.81;;;-144.78;61.21
55994;BME280;67425;52.126;20.638;2023-10-13T10:41:01;57547.50;;;-144.78;60.58
55994;BME280;67425;52.126;20.638;2023-10-13T10:43:37;57559.97;;;-144.78;60.75
55994;BME280;67425;52.126;20.638;2023-10-13T10:46:39;57539.19;;;-144.78;59.44
55994;BME280;67425;52.126;20.638;2023-10-13T10:49:05;57555.81;;;-144.78;60.15
55994;BME280;67425;52.126;20.638;2023-10-13T10:51:33;57553.72;;;-144.78;59.72
55994;BME280;67425;52.126;20.638;2023-10-13T10:54:18;57547.50;;;-144.78;58.95
55994;BME280;67425;52.126;20.638;2023-10-13T10:56:43;57526.72;;;-144.78;59.70
55994;BME280;67425;52.126;20.638;2023-10-13T10:59:09;57547.50;;;-144.78;58.60
55994;BME280;67425;52.126;20.638;2023-10-13T11:01:44;57518.41;;;-144.78;58.10
55994;BME280;67425;52.126;20.638;2023-10-13T11:04:13;57551.66;;;-144.78;58.07
55994;BME280;67425;52.126;20.638;2023-10-13T11:06:50;57530.88;;;-144.78;58.23
55994;BME280;67425;52.126;20.638;2023-10-13T11:11:52;57535.03;;;-144.78;57.25
55994;BME280;67425;52.126;20.638;2023-10-13T11:14:25;57503.88;;;-144.78;56.76
55994;BME280;67425;52.126;20.638;2023-10-13T11:16:53;57526.72;;;-144.78;55.19
55994;BME280;67425;52.126;20.638;2023-10-13T11:19:33;57539.19;;;-144.78;55.21
55994;BME280;67425;52.126;20.638;2023-10-13T11:22:10;57514.25;;;-144.78;55.30
55994;BME280;67425;52.126;20.638;2023-10-13T11:24:41;57541.25;;;-144.78;54.59
55994;BME280;67425;52.126;20.638;2023-10-13T11:27:14;57501.81;;;-144.78;54.30
55994;BME280;67425;52.126;20.638;2023-10-13T11:29:46;57497.66;;;-144.78;53.95
55994;BME280;67425;52.126;20.638;2023-10-13T11:32:17;57491.41;;;-144.78;53.64
55994;BME280;67425;52.126;20.638;2023-10-13T11:34:45;57522.56;;;-144.78;54.53
55994;BME280;67425;52.126;20.638;2023-10-13T11:37:17;57514.25;;;-144.78;54.04
55994;BME280;67425;52.126;20.638;2023-10-13T11:40:03;57518.41;;;-144.78;54.02
55994;BME280;67425;52.126;20.638;2023-10-13T11:42:35;57495.56;;;-144.78;53.07
55994;BME280;67425;52.126;20.638;2023-10-13T11:45:01;57516.34;;;-144.78;53.48
55994;BME280;67425;52.126;20.638;2023-10-13T11:47:46;57497.66;;;-144.78;52.74
55994;BME280;67425;52.126;20.638;2023-10-13T11:50:25;57508.03;;;-144.78;52.51
55994;BME280;67425;52.126;20.638;2023-10-13T11:53:00;57499.72;;;-144.78;52.84
55994;BME280;67425;52.126;20.638;2023-10-13T11:55:26;57491.41;;;-144.78;52.30
55994;BME280;67425;52.126;20.638;2023-10-13T11:57:51;57460.28;;;-144.78;52.03
55994;BME280;67425;52.126;20.638;2023-10-13T12:00:17;57508.03;;;-144.78;52.15
55994;BME280;67425;52.126;20.638;2023-10-13T12:03:11;57456.13;;;-144.78;51.00
55994;BME280;67425;52.126;20.638;2023-10-13T12:05:55;57493.50;;;-144.78;51.27
55994;BME280;67425;52.126;20.638;2023-10-13T12:08:39;57489.34;;;-144.78;51.59
55994;BME280;67425;52.126;20.638;2023-10-13T12:11:15;57476.88;;;-144.78;51.83
55994;BME280;67425;52.126;20.638;2023-10-13T12:13:56;57493.50;;;-144.78;51.03
55994;BME280;67425;52.126;20.638;2023-10-13T12:16:21;57481.03;;;-144.78;51.26
55994;BME280;67425;52.126;20.638;2023-10-13T12:18:47;57491.41;;;-144.78;51.35
55994;BME280;67425;52.126;20.638;2023-10-13T12:21:21;57512.19;;;-144.78;51.49
55994;BME280;67425;52.126;20.638;2023-10-13T12:23:47;57493.50;;;-144.78;51.14
55994;BME280;67425;52.126;20.638;2023-10-13T12:26:12;57510.13;;;-144.78;51.63
55994;BME280;67425;52.126;20.638;2023-10-13T12:29:00;57518.41;;;-144.78;51.92
55994;BME280;67425;52.126;20.638;2023-10-13T12:31:32;57520.50;;;-144.78;51.41
55994;BME280;67425;52.126;20.638;2023-10-13T12:33:58;57487.28;;;-144.78;52.15
55994;BME280;67425;52.126;20.638;2023-10-13T12:36:32;57503.88;;;-144.78;51.78
55994;BME280;67425;52.126;20.638;2023-10-13T12:39:06;57491.41;;;-144.78;52.61
55994;BME280;67425;52.126;20.638;2023-10-13T12:41:32;57485.19;;;-144.78;52.24
55994;BME280;67425;52.126;20.638;2023-10-13T12:44:15;57476.88;;;-144.78;51.49
55994;BME280;67425;52.126;20.638;2023-10-13T12:47:00;57493.50;;;-144.78;51.97
55994;BME280;67425;52.126;20.638;2023-10-13T12:49:43;57499.72;;;-144.78;52.53
55994;BME280;67425;52.126;20.638;2023-10-13T12:52:22;57493.50;;;-144.78;52.03
55994;BME280;67425;52.126;20.638;2023-10-13T12:54:51;57510.13;;;-144.78;50.46
55994;BME280;67425;52.126;20.638;2023-10-13T12:57:26;57476.88;;;-144.78;52.00
55994;BME280;67425;52.126;20.638;2023-10-13T12:59:52;57495.56;;;-144.78;51.31
55994;BME280;67425;52.126;20.638;2023-10-13T13:02:21;57516.34;;;-144.78;51.66
55994;BME280;67425;52.126;20.638;2023-10-13T13:04:47;57468.56;;;-144.78;51.63
55994;BME280;67425;52.126;20.638;2023-10-13T13:07:19;57505.97;;;-144.78;52.41
55994;BME280;67425;52.126;20.638;2023-10-13T13:09:45;57510.13;;;-144.78;52.30
55994;BME280;67425;52.126;20.638;2023-10-13T13:12:10;57493.50;;;-144.78;52.25
55994;BME280;67425;52.126;20.638;2023-10-13T13:14:39;57537.09;;;-144.78;52.48
55994;BME280;67425;52.126;20.638;2023-10-13T13:17:09;57524.66;;;-144.78;52.96
55994;BME280;67425;52.126;20.638;2023-10-13T13:19:36;57487.28;;;-144.78;52.58
55994;BME280;67425;52.126;20.638;2023-10-13T13:22:04;57497.66;;;-144.78;52.33
55994;BME280;67425;52.126;20.638;2023-10-13T13:24:30;57483.13;;;-144.78;52.59
55994;BME280;67425;52.126;20.638;2023-10-13T13:26:57;57499.72;;;-144.78;53.83